Time;durP1;ratioP1;P1;durP2;ratioP2;P2;SDS_P1;SDS_P2;PMS_P1;PMS_P2;Temp;Humidity;BMP_temperature;BMP_pressure;BME280_temperature;BME280_humidity;BME280_pressure;Samples;Min_cycle;Max_cycle;Signal;HPM_P1;HPM_P2
2022/06/27 00:02:09;;;;;;;26.02;12.82;;;;;;;16.46;95.93;101543.06;5048444;28;20029;-86
2022/06/27 00:04:34;;;;;;;20.52;13.00;;;;;;;16.47;95.03;101539.53;5061984;28;20032;-87
2022/06/27 00:07:00;;;;;;;19.83;12.38;;;;;;;16.48;96.02;101533.41;5050824;28;20386;-87
2022/06/27 00:09:25;;;;;;;21.98;12.48;;;;;;;16.46;95.83;101537.81;5051882;28;20538;-86
2022/06/27 00:11:50;;;;;;;20.40;11.95;;;;;;;16.49;95.82;101535.09;5050310;28;20031;-87
2022/06/27 00:14:16;;;;;;;20.10;12.13;;;;;;;16.48;95.87;101528.16;5055354;28;20052;-87
2022/06/27 00:16:41;;;;;;;20.60;12.20;;;;;;;16.49;95.57;101526.41;5048383;28;20358;-87
2022/06/27 00:19:06;;;;;;;21.63;12.50;;;;;;;16.48;95.16;101536.00;5062682;28;20032;-87
2022/06/27 00:21:32;;;;;;;19.67;12.20;;;;;;;16.46;94.93;101529.97;5060672;28;20025;-87
2022/06/27 00:23:57;;;;;;;21.38;12.32;;;;;;;16.46;95.54;101529.97;5054133;28;20086;-87
2022/06/27 00:26:22;;;;;;;21.98;12.73;;;;;;;16.43;95.14;101535.34;5049467;28;20464;-87
2022/06/27 00:28:48;;;;;;;20.27;12.65;;;;;;;16.43;95.87;101548.44;5058909;28;20032;-86
2022/06/27 00:31:13;;;;;;;20.27;12.30;;;;;;;16.42;96.09;101538.88;5058409;28;20036;-87
2022/06/27 00:33:39;;;;;;;22.95;12.90;;;;;;;16.43;95.81;101540.56;5049720;28;20741;-87
2022/06/27 00:36:04;;;;;;;21.75;13.30;;;;;;;16.42;95.69;101551.94;5065740;28;20235;-86
2022/06/27 00:38:29;;;;;;;23.13;13.43;;;;;;;16.40;94.59;101555.50;5067292;28;20021;-86
2022/06/27 00:40:55;;;;;;;21.88;13.18;;;;;;;16.41;95.62;101559.84;5050503;28;20471;-86
2022/06/27 00:43:20;;;;;;;22.13;13.30;;;;;;;16.41;95.67;101557.22;5049436;28;20033;-87
2022/06/27 00:45:45;;;;;;;23.20;12.77;;;;;;;16.41;96.00;101570.31;5066968;28;20330;-86
2022/06/27 00:48:11;;;;;;;22.38;13.57;;;;;;;16.41;95.91;101578.16;5065048;28;20102;-87
2022/06/27 00:50:36;;;;;;;24.13;13.32;;;;;;;16.38;95.89;101571.25;5055480;28;20028;-81
2022/06/27 00:53:02;;;;;;;23.13;13.02;;;;;;;16.38;96.20;101568.66;5057726;28;20044;-81
2022/06/27 00:55:28;;;;;;;22.33;13.45;;;;;;;16.39;96.63;101566.88;5053278;28;20025;-81
2022/06/27 00:57:53;;;;;;;21.80;13.05;;;;;;;16.41;96.81;101567.69;5061716;28;20025;-81
2022/06/27 01:00:19;;;;;;;22.40;13.75;;;;;;;16.43;96.86;101571.97;5067886;28;20028;-81
2022/06/27 01:02:45;;;;;;;24.25;13.43;;;;;;;16.43;96.61;101566.75;5059323;28;20056;-81
2022/06/27 01:05:14;;;;;;;22.58;13.68;;;;;;;16.42;96.77;101565.03;5065867;28;20032;-81
2022/06/27 01:07:40;;;;;;;24.27;14.13;;;;;;;16.41;97.36;101555.47;5060475;28;20520;-81
2022/06/27 01:10:06;;;;;;;22.02;12.98;;;;;;;16.44;97.27;101558.00;5055883;28;20533;-81
2022/06/27 01:12:32;;;;;;;24.55;13.43;;;;;;;16.41;96.87;101558.09;5069119;28;20032;-81
2022/06/27 01:14:58;;;;;;;24.38;14.30;;;;;;;16.39;96.04;101562.50;5069517;28;20024;-81
2022/06/27 01:17:24;;;;;;;24.55;14.77;;;;;;;16.38;96.28;101566.03;5053967;28;20033;-81
2022/06/27 01:19:49;;;;;;;23.50;13.95;;;;;;;16.38;95.85;101571.25;5071244;28;20073;-87
2022/06/27 01:22:17;;;;;;;22.38;13.88;;;;;;;16.39;96.45;101567.75;5067547;28;20021;-87
2022/06/27 01:24:42;;;;;;;22.42;13.68;;;;;;;16.40;96.61;101565.97;5073323;28;20107;-86
2022/06/27 01:27:08;;;;;;;22.23;14.07;;;;;;;16.40;96.92;101565.97;5056029;28;20120;-87
2022/06/27 01:29:34;;;;;;;23.13;14.50;;;;;;;16.38;96.37;101563.41;5054057;28;20112;-87
2022/06/27 01:32:00;;;;;;;24.20;14.88;;;;;;;16.38;96.63;101560.78;5066524;28;20036;-87
2022/06/27 01:34:26;;;;;;;24.00;14.35;;;;;;;16.35;96.92;101553.06;5064697;28;20040;-87
2022/06/27 01:36:51;;;;;;;25.52;14.32;;;;;;;16.32;95.98;101539.22;5053956;28;20087;-87
2022/06/27 01:39:21;;;;;;;26.52;14.82;;;;;;;16.34;95.62;101547.91;5071895;28;20029;-87
2022/06/27 01:41:53;;;;;;;24.73;14.95;;;;;;;16.31;95.66;101541.00;5070397;28;20063;-87
2022/06/27 01:44:19;;;;;;;28.38;15.35;;;;;;;16.31;95.75;101543.59;5056364;28;20040;-87
2022/06/27 01:46:48;;;;;;;25.25;15.07;;;;;;;16.30;97.08;101533.22;5057373;28;20064;-87
2022/06/27 01:49:15;;;;;;;25.05;14.70;;;;;;;16.32;96.37;101532.25;5070130;28;20090;-87
2022/06/27 01:51:42;;;;;;;26.83;14.88;;;;;;;16.33;96.75;101520.00;5065978;28;20033;-87
2022/06/27 01:54:08;;;;;;;25.60;14.43;;;;;;;16.31;96.47;101512.22;5063144;28;20021;-87
2022/06/27 01:56:33;;;;;;;23.23;14.80;;;;;;;16.31;96.70;101508.78;5058836;28;20020;-87
2022/06/27 01:58:59;;;;;;;24.80;14.95;;;;;;;16.30;96.29;101515.78;5063089;28;20025;-87
2022/06/27 02:01:28;;;;;;;22.88;13.63;;;;;;;16.30;96.16;101515.78;5068815;28;20391;-87
2022/06/27 02:03:55;;;;;;;23.23;14.23;;;;;;;16.31;97.01;101511.38;5058843;28;20448;-87
2022/06/27 02:06:22;;;;;;;24.65;14.98;;;;;;;16.30;96.45;101507.06;5066065;28;20028;-87
2022/06/27 02:08:51;;;;;;;26.52;14.95;;;;;;;16.28;96.38;101512.34;5063803;28;20035;-88
2022/06/27 02:11:17;;;;;;;22.33;14.02;;;;;;;16.26;97.12;101510.69;5062210;28;20043;-87
2022/06/27 02:13:43;;;;;;;24.77;14.88;;;;;;;16.28;96.90;101516.72;5062952;28;20107;-87
2022/06/27 02:16:14;;;;;;;23.95;13.27;;;;;;;16.26;97.02;101523.75;5067898;28;20115;-87
2022/06/27 02:18:40;;;;;;;24.15;14.20;;;;;;;16.24;96.04;101510.72;5072376;28;20207;-81
2022/06/27 02:21:27;;;;;;;25.85;14.63;;;;;;;16.26;95.81;101506.31;5065661;28;20431;-81
2022/06/27 02:23:53;;;;;;;23.23;14.18;;;;;;;16.24;96.53;101497.66;5062523;28;20029;-81
2022/06/27 02:26:30;;;;;;;25.02;14.32;;;;;;;16.24;97.05;101497.66;5065102;28;20043;-81
2022/06/27 02:28:57;;;;;;;25.52;14.15;;;;;;;16.23;97.26;101492.50;5069975;28;20405;-81
2022/06/27 02:31:22;;;;;;;22.83;13.98;;;;;;;16.23;97.61;101489.88;5069875;28;20032;-81
2022/06/27 02:33:49;;;;;;;22.58;14.13;;;;;;;16.22;97.66;101494.25;5070069;28;20024;-81
2022/06/27 02:36:20;;;;;;;23.23;13.57;;;;;;;16.19;97.20;101484.75;5059017;28;20368;-81
2022/06/27 02:38:49;;;;;;;22.80;14.90;;;;;;;16.19;96.78;101489.13;5052039;28;20409;-81
2022/06/27 02:41:17;;;;;;;26.05;15.23;;;;;;;16.16;96.07;101495.34;5060375;28;20021;-81
2022/06/27 02:43:53;;;;;;;24.35;14.80;;;;;;;16.15;95.83;101487.53;5071238;28;20059;-81
2022/06/27 02:46:19;;;;;;;24.70;14.75;;;;;;;16.12;96.25;101483.25;5061839;28;20039;-81
2022/06/27 02:48:48;;;;;;;24.30;14.30;;;;;;;16.12;96.82;101485.03;5060320;28;20055;-81
2022/06/27 02:51:18;;;;;;;22.98;13.70;;;;;;;16.12;96.72;101474.56;5064703;28;20253;-81
2022/06/27 02:53:52;;;;;;;26.65;14.73;;;;;;;16.12;96.92;101477.19;5058662;28;20025;-81
2022/06/27 02:56:24;;;;;;;23.80;14.23;;;;;;;16.08;96.61;101467.75;5057228;28;20021;-81
2022/06/27 02:59:08;;;;;;;23.95;14.05;;;;;;;16.08;96.46;101459.91;5071433;28;20028;-82
2022/06/27 03:01:36;;;;;;;24.83;14.15;;;;;;;16.04;96.79;101459.16;5068513;28;20029;-81
2022/06/27 03:04:01;;;;;;;26.25;14.68;;;;;;;15.96;96.61;101449.91;5061830;28;20041;-81
2022/06/27 03:06:28;;;;;;;24.83;14.27;;;;;;;15.93;96.60;101445.63;5066309;28;20036;-81
2022/06/27 03:08:53;;;;;;;24.65;14.32;;;;;;;15.91;96.88;101457.03;5057748;28;20032;-81
2022/06/27 03:11:21;;;;;;;22.75;14.15;;;;;;;15.89;96.86;101459.72;5059610;28;20025;-81
2022/06/27 03:13:47;;;;;;;27.40;14.98;;;;;;;15.81;96.96;101453.91;5071243;28;20044;-81
2022/06/27 03:16:14;;;;;;;26.20;14.10;;;;;;;15.77;97.20;101452.28;5068025;28;20135;-81
2022/06/27 03:18:39;;;;;;;24.48;14.68;;;;;;;15.73;97.08;101445.47;5069632;28;20482;-87
2022/06/27 03:21:04;;;;;;;25.70;14.90;;;;;;;15.68;97.56;101447.41;5064061;28;20040;-87
2022/06/27 03:23:30;;;;;;;27.10;15.05;;;;;;;15.63;97.33;101444.94;5058809;28;20020;-87
2022/06/27 03:25:56;;;;;;;22.23;14.00;;;;;;;15.61;97.48;101443.31;5051536;28;20036;-87
2022/06/27 03:28:22;;;;;;;22.95;13.80;;;;;;;15.58;98.01;101446.88;5071144;28;20173;-87
2022/06/27 03:30:48;;;;;;;25.70;14.27;;;;;;;15.55;98.19;101441.75;5053544;28;20090;-87
2022/06/27 03:33:14;;;;;;;23.70;14.40;;;;;;;15.52;97.94;101441.81;5059454;28;20135;-87
2022/06/27 03:35:41;;;;;;;24.10;14.30;;;;;;;15.49;98.10;101441.09;5053182;28;20025;-88
2022/06/27 03:38:07;;;;;;;23.33;14.23;;;;;;;15.47;98.76;101441.13;5058834;28;20021;-87
2022/06/27 03:40:32;;;;;;;23.77;14.07;;;;;;;15.43;98.72;101444.75;5052211;28;20143;-87
2022/06/27 03:42:58;;;;;;;24.85;13.80;;;;;;;15.45;98.95;101442.94;5069980;28;20074;-88
2022/06/27 03:45:23;;;;;;;24.92;14.50;;;;;;;15.41;98.49;101443.97;5054620;28;20040;-87
2022/06/27 03:47:51;;;;;;;28.52;15.73;;;;;;;15.40;98.46;101437.88;5062615;28;20035;-88
2022/06/27 03:50:18;;;;;;;25.85;15.63;;;;;;;15.33;98.48;101444.22;5057947;28;20071;-87
2022/06/27 03:52:44;;;;;;;26.73;16.38;;;;;;;15.30;98.83;101446.91;5066727;28;20115;-87
2022/06/27 03:55:11;;;;;;;25.40;15.63;;;;;;;15.29;98.91;101446.97;5055941;28;20108;-87
2022/06/27 03:57:37;;;;;;;26.50;15.13;;;;;;;15.24;98.86;101447.13;5050618;28;20025;-88
2022/06/27 04:00:09;;;;;;;23.88;14.95;;;;;;;15.23;99.22;101460.22;5050800;28;20017;-87
2022/06/27 04:02:35;;;;;;;26.85;15.80;;;;;;;15.18;99.02;101457.78;5057557;28;20079;-87
2022/06/27 04:05:01;;;;;;;30.85;15.88;;;;;;;15.16;99.47;101445.66;5054597;28;20064;-88
2022/06/27 04:07:27;;;;;;;26.88;14.98;;;;;;;15.15;99.66;101457.84;5050350;28;20028;-87
2022/06/27 04:09:52;;;;;;;29.45;16.38;;;;;;;15.19;99.95;101469.09;5060335;28;20024;-86
2022/06/27 04:12:17;;;;;;;24.30;14.98;;;;;;;15.18;99.90;101476.06;5069166;28;20082;-87
2022/06/27 04:14:43;;;;;;;28.13;16.33;;;;;;;15.18;99.80;101468.22;5070449;28;20017;-87
2022/06/27 04:17:08;;;;;;;28.55;16.88;;;;;;;15.19;100.00;101463.84;5065502;28;20075;-87
2022/06/27 04:19:33;;;;;;;29.52;17.77;;;;;;;15.22;100.00;101459.38;5057787;28;20021;-87
2022/06/27 04:21:59;;;;;;;30.88;17.95;;;;;;;15.24;100.00;101464.56;5062246;28;20056;-87
2022/06/27 04:24:24;;;;;;;29.25;18.00;;;;;;;15.28;100.00;101464.41;5061528;28;20578;-87
2022/06/27 04:26:49;;;;;;;29.27;17.90;;;;;;;15.34;100.00;101452.91;5060474;28;20090;-87
2022/06/27 04:29:15;;;;;;;33.00;18.70;;;;;;;15.41;100.00;101457.03;5060855;28;20292;-81
2022/06/27 04:31:40;;;;;;;35.03;20.33;;;;;;;15.48;100.00;101448.06;5065782;28;20297;-81
2022/06/27 04:34:06;;;;;;;35.30;20.83;;;;;;;15.62;100.00;101443.25;5063400;28;20032;-81
2022/06/27 04:36:31;;;;;;;35.13;19.92;;;;;;;15.74;100.00;101440.19;5057456;28;20031;-81
2022/06/27 04:38:57;;;;;;;39.47;22.05;;;;;;;15.80;100.00;101420.81;5064584;28;20115;-81
2022/06/27 04:41:25;;;;;;;34.28;20.75;;;;;;;15.90;99.71;101422.19;5065763;28;20012;-81
2022/06/27 04:43:52;;;;;;;39.08;20.65;;;;;;;15.98;98.38;101411.44;5058632;28;20598;-81
2022/06/27 04:46:18;;;;;;;36.53;21.60;;;;;;;16.04;97.88;101406.00;5066576;28;20116;-81
2022/06/27 04:48:45;;;;;;;37.05;20.58;;;;;;;16.13;97.35;101408.28;5067307;28;20107;-81
2022/06/27 04:51:11;;;;;;;36.55;20.00;;;;;;;16.21;98.50;101403.59;5060964;28;20417;-81
2022/06/27 04:53:38;;;;;;;34.78;19.50;;;;;;;16.28;98.12;101401.59;5069896;28;20080;-81
2022/06/27 04:56:05;;;;;;;30.85;19.30;;;;;;;16.30;98.51;101400.66;5066894;28;20474;-81
2022/06/27 04:58:31;;;;;;;37.00;19.42;;;;;;;16.38;98.69;101416.88;5064349;28;20029;-88
2022/06/27 05:00:56;;;;;;;37.95;18.77;;;;;;;16.42;98.33;101421.09;5064311;28;20009;-87
2022/06/27 05:03:23;;;;;;;36.08;19.08;;;;;;;16.46;98.07;101422.69;5058956;28;20072;-88
2022/06/27 05:05:50;;;;;;;35.70;19.92;;;;;;;16.45;97.03;101420.09;5054107;28;20083;-87
2022/06/27 05:08:16;;;;;;;34.90;20.17;;;;;;;16.47;97.68;101424.38;5057515;28;20528;-87
2022/06/27 05:10:41;;;;;;;36.42;20.02;;;;;;;16.46;98.57;101417.44;5067260;28;20507;-87
2022/06/27 05:13:06;;;;;;;33.90;20.02;;;;;;;16.47;98.89;101407.84;5056101;28;20068;-85
2022/06/27 05:15:32;;;;;;;32.38;19.90;;;;;;;16.42;97.74;101402.78;5070266;28;20020;-85
2022/06/27 05:17:57;;;;;;;33.50;19.25;;;;;;;16.40;98.11;101385.44;5063734;28;20032;-85
2022/06/27 05:20:22;;;;;;;32.33;19.90;;;;;;;16.39;97.98;101391.56;5073360;28;20059;-86
2022/06/27 05:22:48;;;;;;;34.53;20.08;;;;;;;16.37;98.52;101396.88;5071750;28;20279;-85
2022/06/27 05:25:13;;;;;;;32.28;19.60;;;;;;;16.38;98.88;101401.19;5060912;28;20021;-85
2022/06/27 05:27:38;;;;;;;31.13;19.50;;;;;;;16.38;98.64;101401.19;5053470;28;20041;-86
2022/06/27 05:30:05;;;;;;;32.42;19.20;;;;;;;16.41;99.12;101408.06;5062462;28;20033;-86
2022/06/27 05:32:30;;;;;;;32.17;19.27;;;;;;;16.42;98.93;101415.00;5053281;28;20017;-86
2022/06/27 05:34:56;;;;;;;34.15;19.98;;;;;;;16.42;99.63;101409.78;5053336;28;20032;-85
2022/06/27 05:37:21;;;;;;;33.58;19.92;;;;;;;16.32;99.12;101388.34;5053316;28;20043;-87
2022/06/27 05:39:46;;;;;;;31.00;19.38;;;;;;;16.43;99.38;101407.13;5066002;28;20044;-90
2022/06/27 05:42:12;;;;;;;32.45;20.35;;;;;;;16.43;99.27;101429.81;5053414;28;20557;-91
2022/06/27 05:44:37;;;;;;;31.38;19.35;;;;;;;16.47;98.91;101473.25;5053355;28;20021;-91
2022/06/27 05:47:03;;;;;;;34.83;19.02;;;;;;;16.49;98.33;101484.53;5057807;28;20071;-91
2022/06/27 05:49:28;;;;;;;32.03;19.50;;;;;;;16.53;99.32;101483.47;5070293;28;20467;-91
2022/06/27 05:51:59;;;;;;;31.10;19.23;;;;;;;16.61;98.91;101498.94;5061337;28;20051;-91
2022/06/27 05:54:25;;;;;;;34.67;19.63;;;;;;;16.68;99.41;101505.66;5067188;28;20491;-90
2022/06/27 05:56:51;;;;;;;34.17;19.35;;;;;;;16.72;99.58;101518.53;5069619;28;20513;-89
2022/06/27 05:59:17;;;;;;;32.22;19.25;;;;;;;16.75;99.52;101525.44;5068665;28;20534;-82
2022/06/27 06:01:45;;;;;;;33.67;19.02;;;;;;;16.76;97.66;101533.25;5067557;28;20028;-83
2022/06/27 06:04:11;;;;;;;31.35;19.83;;;;;;;16.78;97.38;101536.66;5071039;28;20563;-83
2022/06/27 06:06:36;;;;;;;35.13;19.92;;;;;;;16.83;95.82;101528.63;5069422;28;20186;-83
2022/06/27 06:09:03;;;;;;;35.67;20.08;;;;;;;16.85;96.11;101529.44;5070415;28;20036;-83
2022/06/27 06:11:28;;;;;;;32.53;19.95;;;;;;;16.91;97.64;101539.66;5072303;28;20392;-82
2022/06/27 06:13:54;;;;;;;33.13;20.50;;;;;;;16.93;97.78;101537.81;5065218;28;20502;-83
2022/06/27 06:16:20;;;;;;;33.90;21.23;;;;;;;16.95;98.32;101536.00;5052350;28;20396;-83
2022/06/27 06:18:53;;;;;;;33.13;20.33;;;;;;;16.99;98.82;101527.09;5052478;28;20967;-83
2022/06/27 06:21:22;;;;;;;35.67;20.92;;;;;;;17.01;98.61;101527.91;5052201;28;20021;-83
2022/06/27 06:23:49;;;;;;;34.30;21.08;;;;;;;17.03;98.92;101525.22;5063682;28;20064;-83
2022/06/27 06:26:16;;;;;;;40.55;23.58;;;;;;;17.01;97.04;101519.19;5052016;28;20021;-82
2022/06/27 06:28:43;;;;;;;39.13;23.88;;;;;;;16.98;97.14;101512.31;5052448;28;20191;-89
2022/06/27 06:31:09;;;;;;;37.22;23.48;;;;;;;17.04;98.08;101530.41;5052715;28;20070;-90
2022/06/27 06:33:34;;;;;;;37.88;22.95;;;;;;;17.08;98.27;101536.38;5052454;28;20025;-90
2022/06/27 06:36:00;;;;;;;33.97;22.73;;;;;;;17.09;99.02;101528.47;5052630;28;20131;-89
2022/06/27 06:38:25;;;;;;;35.63;21.55;;;;;;;17.16;99.57;101532.53;5061793;28;20036;-90
2022/06/27 06:40:51;;;;;;;37.20;21.95;;;;;;;17.19;99.07;101542.06;5072582;28;20472;-90
2022/06/27 06:43:16;;;;;;;39.10;21.67;;;;;;;17.21;98.97;101530.56;5071926;28;20034;-89
2022/06/27 06:45:41;;;;;;;36.55;21.30;;;;;;;17.23;97.09;101518.28;5052437;28;20275;-89
2022/06/27 06:48:08;;;;;;;40.20;22.20;;;;;;;17.26;95.97;101519.94;5052269;28;20527;-89
2022/06/27 06:50:33;;;;;;;40.70;21.20;;;;;;;17.26;94.23;101510.28;5050462;28;20033;-88
2022/06/27 06:52:59;;;;;;;36.42;21.75;;;;;;;17.27;95.81;101496.25;5060151;28;20032;-89
2022/06/27 06:55:26;;;;;;;36.75;20.65;;;;;;;17.28;95.67;101494.50;5053441;28;20511;-89
2022/06/27 06:57:54;;;;;;;35.08;20.85;;;;;;;17.28;96.56;101490.09;5052050;28;20036;-90
2022/06/27 07:00:19;;;;;;;35.22;22.95;;;;;;;17.31;95.83;101479.53;5051960;28;20051;-90
2022/06/27 07:02:46;;;;;;;38.08;23.42;;;;;;;17.33;95.83;101474.22;5050523;28;20049;-90
2022/06/27 07:05:11;;;;;;;37.20;22.67;;;;;;;17.34;96.23;101455.78;5052079;28;20025;-90
2022/06/27 07:07:41;;;;;;;40.78;23.73;;;;;;;17.41;95.71;101461.63;5058801;28;20025;-90
2022/06/27 07:10:08;;;;;;;38.28;24.20;;;;;;;17.48;96.14;101477.94;5057878;28;20052;-90
2022/06/27 07:12:33;;;;;;;41.95;25.58;;;;;;;17.56;95.55;101489.81;5071603;28;20021;-89
2022/06/27 07:15:00;;;;;;;39.38;24.85;;;;;;;17.66;95.63;101472.81;5069605;28;20024;-90
2022/06/27 07:17:27;;;;;;;42.72;27.20;;;;;;;17.74;92.97;101470.69;5071830;28;20025;-89
2022/06/27 07:19:53;;;;;;;45.45;26.48;;;;;;;17.79;93.71;101452.16;5061254;28;20445;-90
2022/06/27 07:22:19;;;;;;;42.50;27.00;;;;;;;17.90;94.03;101454.28;5068022;28;20017;-89
2022/06/27 07:24:48;;;;;;;39.88;26.08;;;;;;;17.89;92.74;101471.81;5071503;28;20025;-90
2022/06/27 07:27:16;;;;;;;40.17;26.88;;;;;;;17.95;94.76;101504.78;5071475;28;20024;-90
2022/06/27 07:29:42;;;;;;;42.50;26.80;;;;;;;17.98;93.38;101500.25;5071616;28;20024;-90
2022/06/27 07:32:08;;;;;;;37.65;26.17;;;;;;;18.03;94.60;101502.69;5071499;28;20028;-90
2022/06/27 07:34:34;;;;;;;37.05;25.52;;;;;;;18.10;93.96;101515.47;5060097;28;20035;-90
2022/06/27 07:37:00;;;;;;;39.15;26.40;;;;;;;18.23;93.61;101522.78;5069758;28;20031;-90
2022/06/27 07:39:26;;;;;;;41.00;26.73;;;;;;;18.45;92.43;101528.78;5058591;28;20025;-90
2022/06/27 07:41:52;;;;;;;44.53;27.48;;;;;;;18.65;91.74;101520.03;5051508;28;20044;-90
2022/06/27 07:44:18;;;;;;;40.97;27.45;;;;;;;18.85;90.15;101493.66;5051443;28;20036;-90
2022/06/27 07:46:43;;;;;;;39.97;27.33;;;;;;;19.09;89.17;101496.91;5051540;28;20013;-90
2022/06/27 07:49:08;;;;;;;39.35;26.02;;;;;;;19.28;89.63;101518.72;5051950;28;20021;-91
2022/06/27 07:51:35;;;;;;;40.58;24.45;;;;;;;19.41;86.16;101522.47;5064654;28;20025;-90
2022/06/27 07:54:01;;;;;;;37.67;21.60;;;;;;;19.53;85.11;101521.88;5051852;28;20021;-90
2022/06/27 07:56:27;;;;;;;30.27;20.10;;;;;;;19.67;85.02;101527.28;5068674;28;20030;-90
2022/06/27 07:58:52;;;;;;;33.80;21.02;;;;;;;19.80;85.71;101538.03;5061923;28;20090;-90
2022/06/27 08:01:19;;;;;;;35.90;22.17;;;;;;;19.87;84.24;101543.84;5051789;28;20413;-90
2022/06/27 08:03:44;;;;;;;33.92;22.00;;;;;;;19.85;83.40;101538.69;5051506;28;20049;-90
2022/06/27 08:06:24;;;;;;;36.08;22.00;;;;;;;19.70;81.74;101540.31;5051728;28;20055;-90
2022/06/27 08:09:03;;;;;;;38.85;22.48;;;;;;;19.65;84.34;101552.00;5058652;28;20020;-90
2022/06/27 08:11:41;;;;;;;35.60;20.65;;;;;;;19.58;86.45;101561.94;5052143;28;20398;-90
2022/06/27 08:14:17;;;;;;;36.08;22.45;;;;;;;19.61;82.90;101555.69;5050111;28;20103;-90
2022/06/27 08:16:43;;;;;;;32.40;19.65;;;;;;;19.62;85.04;101566.13;5059185;28;20101;-90
2022/06/27 08:19:09;;;;;;;31.40;18.13;;;;;;;19.71;84.07;101581.47;5070339;28;20029;-90
2022/06/27 08:21:37;;;;;;;27.17;16.20;;;;;;;19.76;83.02;101577.75;5057370;28;20104;-90
2022/06/27 08:24:07;;;;;;;24.70;16.08;;;;;;;19.75;80.95;101555.00;5058170;28;20459;-91
2022/06/27 08:26:33;;;;;;;27.08;16.02;;;;;;;19.78;80.80;101554.84;5051168;28;20441;-90
2022/06/27 08:28:59;;;;;;;25.50;14.68;;;;;;;19.79;80.07;101559.19;5051959;28;20025;-90
2022/06/27 08:31:26;;;;;;;24.45;14.25;;;;;;;19.77;79.70;101563.66;5056999;28;20025;-91
2022/06/27 08:33:58;;;;;;;21.75;14.40;;;;;;;19.70;80.48;101561.34;5058805;28;20463;-90
2022/06/27 08:36:27;;;;;;;24.10;14.98;;;;;;;19.65;80.47;101575.66;5070183;28;20028;-91
2022/06/27 08:38:53;;;;;;;22.55;15.50;;;;;;;19.57;82.65;101577.81;5058890;28;20051;-90
2022/06/27 08:41:21;;;;;;;24.42;15.52;;;;;;;19.52;83.88;101585.91;5049708;28;20044;-91
2022/06/27 08:43:55;;;;;;;25.17;15.68;;;;;;;19.45;85.20;101595.00;5051872;28;20032;-90
2022/06/27 08:46:22;;;;;;;25.75;14.90;;;;;;;19.44;84.93;101603.84;5051140;28;20021;-91
2022/06/27 08:48:50;;;;;;;24.05;15.30;;;;;;;19.37;86.51;101596.31;5051591;28;20033;-90
2022/06/27 08:51:15;;;;;;;25.23;15.88;;;;;;;19.34;85.99;101589.41;5063836;28;20065;-90
2022/06/27 08:53:41;;;;;;;26.13;15.45;;;;;;;19.29;86.30;101588.78;5051648;28;20067;-91
2022/06/27 08:56:12;;;;;;;26.42;16.73;;;;;;;19.19;84.82;101591.00;5055396;28;20051;-90
2022/06/27 08:58:39;;;;;;;25.75;16.50;;;;;;;19.14;84.03;101584.25;5058924;28;20605;-91
2022/06/27 09:01:05;;;;;;;26.55;16.30;;;;;;;19.19;85.37;101591.00;5056089;28;20031;-91
2022/06/27 09:03:32;;;;;;;27.25;17.13;;;;;;;19.17;85.36;101599.91;5070531;28;20199;-90
2022/06/27 09:06:05;;;;;;;24.48;16.23;;;;;;;19.17;87.19;101595.50;5067667;28;20502;-90
2022/06/27 09:08:34;;;;;;;23.35;14.95;;;;;;;19.23;85.69;101602.22;5057131;28;20075;-91
2022/06/27 09:11:00;;;;;;;25.73;15.98;;;;;;;19.30;86.91;101607.13;5064266;28;20025;-91
2022/06/27 09:13:27;;;;;;;25.02;15.32;;;;;;;19.40;85.96;101618.03;5050941;28;20016;-91
2022/06/27 09:15:54;;;;;;;24.63;15.00;;;;;;;19.53;86.81;101605.19;5050944;28;20029;-90
2022/06/27 09:18:20;;;;;;;27.33;17.13;;;;;;;19.57;83.31;101609.38;5050658;28;20025;-91
2022/06/27 09:20:59;;;;;;;27.90;17.80;;;;;;;19.66;84.55;101604.50;5060415;28;20024;-91
2022/06/27 09:23:43;;;;;;;30.45;18.83;;;;;;;19.80;81.49;101588.03;5050339;28;20037;-91
2022/06/27 09:26:15;;;;;;;29.35;18.00;;;;;;;19.89;80.83;101576.19;5056700;28;20550;-91
2022/06/27 09:29:00;;;;;;;26.88;17.75;;;;;;;19.97;82.18;101581.94;5069547;28;20031;-90
2022/06/27 09:31:26;;;;;;;29.02;17.25;;;;;;;20.07;80.10;101593.69;5050465;28;20033;-91
2022/06/27 09:34:23;;;;;;;25.85;16.63;;;;;;;20.28;81.32;101603.09;5064528;28;20048;-91
2022/06/27 09:37:00;;;;;;;25.55;16.42;;;;;;;20.33;78.75;101618.72;5050446;28;20037;-91
2022/06/27 09:39:32;;;;;;;30.10;17.27;;;;;;;20.40;80.70;101612.19;5065464;28;20029;-91
2022/06/27 09:42:01;;;;;;;26.13;16.95;;;;;;;20.45;80.80;101605.75;5067707;28;20051;-91
2022/06/27 09:44:35;;;;;;;29.75;17.73;;;;;;;20.45;80.44;101597.84;5063354;28;20024;-91
2022/06/27 09:47:16;;;;;;;29.80;18.60;;;;;;;20.47;80.86;101601.25;5071091;28;20031;-91
2022/06/27 09:49:43;;;;;;;29.77;17.67;;;;;;;20.40;78.95;101602.50;5054363;28;20013;-90
2022/06/27 09:52:11;;;;;;;29.70;17.48;;;;;;;20.38;77.36;101600.88;5053872;28;20016;-91
2022/06/27 09:54:40;;;;;;;25.70;16.25;;;;;;;20.57;75.82;101584.94;5069262;28;20103;-90
2022/06/27 09:57:07;;;;;;;28.13;16.63;;;;;;;20.80;79.02;101587.22;5056104;28;20029;-91
2022/06/27 09:59:33;;;;;;;28.45;16.08;;;;;;;21.09;77.14;101594.34;5054517;28;20493;-90
2022/06/27 10:02:00;;;;;;;26.15;16.95;;;;;;;21.24;71.65;101587.41;5057920;28;20020;-91
2022/06/27 10:04:28;;;;;;;26.25;17.02;;;;;;;21.34;75.15;101598.31;5073889;28;20063;-90
2022/06/27 10:06:55;;;;;;;24.83;17.33;;;;;;;21.38;73.73;101598.03;5057145;28;20036;-91
2022/06/27 10:09:24;;;;;;;28.33;17.25;;;;;;;21.27;75.88;101593.38;5057537;28;20021;-91
2022/06/27 10:12:25;;;;;;;27.42;17.20;;;;;;;21.18;75.38;101585.97;5053203;28;20502;-91
2022/06/27 10:15:14;;;;;;;28.13;16.23;;;;;;;21.08;74.61;101574.22;5053738;28;20029;-91
2022/06/27 10:17:41;;;;;;;24.92;14.88;;;;;;;21.15;76.42;101565.00;5063935;28;20107;-91
2022/06/27 10:20:23;;;;;;;25.65;14.85;;;;;;;21.26;72.74;101575.84;5067981;28;20013;-91
2022/06/27 10:23:04;;;;;;;24.13;15.23;;;;;;;21.53;72.99;101577.84;5060223;28;20028;-91
2022/06/27 10:25:29;;;;;;;22.95;14.90;;;;;;;21.65;73.85;101577.13;5053933;28;20513;-92
2022/06/27 10:28:07;;;;;;;24.17;15.37;;;;;;;21.79;73.55;101578.97;5054487;28;20025;-91
2022/06/27 10:30:58;;;;;;;25.92;15.40;;;;;;;21.93;73.80;101584.28;5057360;28;20796;-85
2022/06/27 10:35:57;;;;;;;22.67;13.33;;;;;;;21.97;71.39;101567.38;5062448;28;20541;-85
2022/06/27 10:38:26;;;;;;;22.58;13.45;;;;;;;21.93;69.92;101552.59;5057884;28;20032;-85
2022/06/27 10:40:52;;;;;;;20.80;14.77;;;;;;;21.83;69.46;101562.88;5060466;28;20021;-85
2022/06/27 10:43:36;;;;;;;20.60;12.85;;;;;;;21.84;72.57;101569.81;5070606;28;20024;-85
2022/06/27 10:46:22;;;;;;;22.75;14.23;;;;;;;21.74;73.02;101562.56;5072063;28;20491;-85
2022/06/27 10:48:53;;;;;;;21.30;13.07;;;;;;;21.70;70.61;101567.16;5063728;28;20044;-86
2022/06/27 10:51:18;;;;;;;24.00;15.27;;;;;;;21.76;68.69;101568.59;5067670;28;20472;-85
2022/06/27 10:53:45;;;;;;;26.48;15.02;;;;;;;21.78;70.62;101574.63;5052454;28;20111;-85
2022/06/27 10:56:28;;;;;;;21.42;14.77;;;;;;;21.92;73.86;101570.22;5051815;28;20032;-85
2022/06/27 10:58:54;;;;;;;24.70;14.38;;;;;;;21.96;72.93;101576.22;5052741;28;20025;-91
2022/06/27 11:01:21;;;;;;;20.13;14.05;;;;;;;21.82;66.13;101569.09;5067166;28;20075;-91
2022/06/27 11:03:47;;;;;;;19.30;13.40;;;;;;;21.64;67.77;101578.06;5065346;28;20501;-91
2022/06/27 11:06:14;;;;;;;20.65;12.13;;;;;;;21.45;67.71;101574.78;5066540;28;20324;-91
2022/06/27 11:08:41;;;;;;;17.67;11.55;;;;;;;21.37;71.11;101582.28;5053182;28;20065;-91
2022/06/27 11:11:08;;;;;;;16.38;10.48;;;;;;;21.26;72.42;101586.41;5051468;28;20064;-91
2022/06/27 11:13:38;;;;;;;18.85;10.73;;;;;;;21.20;71.95;101599.06;5060350;28;20123;-91
2022/06/27 11:16:04;;;;;;;14.45;10.10;;;;;;;21.10;71.61;101590.78;5059173;28;20029;-91